Data for 03/11/2018

Time Sea-Level Adjusted Pressure Absolute Pressure Temperature Relative Humidity Dew Point   
(mb) (inHg) (mb) (inHg) (C) (F) (%) (C) (F)
00:05 1023 30.21 853 25.19 -3.5 25.7 51 -12.2 10.1
00:10 1023 30.21 853 25.19 -3.1 26.5 48 -12.6 9.3
00:15 1023 30.21 853 25.19 -3.3 26.1 49 -12.4 9.6
00:20 1024 30.24 853 25.19 -3.8 25.2 50 -12.8 8.9
00:25 1024 30.24 853 25.19 -3.8 25.1 51 -12.6 9.3
00:30 1024 30.24 853 25.19 -3.9 24.9 50 -13 8.6
00:35 1024 30.24 853 25.19 -3.8 25.1 51 -12.6 9.3
00:40 1024 30.24 853 25.19 -4.1 24.6 51 -12.9 8.7
00:45 1024 30.24 853 25.19 -4 24.8 51 -12.7 9.1
00:50 1024 30.24 853 25.19 -4.2 24.4 53 -12.5 9.6
00:55 1024 30.24 853 25.19 -4.1 24.6 52 -12.5 9.5
01:00 1024 30.24 853 25.19 -4 24.7 53 -12.4 9.7
01:05 1024 30.24 853 25.19 -4 24.7 55 -11.9 10.6
01:10 1023 30.21 853 25.19 -4 24.8 53 -12.3 9.8
01:15 1023 30.21 853 25.19 -4.1 24.6 54 -12.1 10.2
01:20 1023 30.21 853 25.19 -4.1 24.6 54 -12.1 10.2
01:25 1023 30.21 853 25.19 -4.4 24.1 56 -11.9 10.6
01:30 1023 30.21 853 25.19 -4.6 23.7 59 -11.5 11.4
01:35 1023 30.21 853 25.19 -4.6 23.7 61 -11 12.2
01:40 1023 30.21 853 25.19 -4.4 24.1 61 -10.8 12.6
01:45 1023 30.21 852 25.16 -4.3 24.3 60 -10.8 12.5
01:50 1023 30.21 852 25.16 -4.5 23.9 60 -11.1 12.1
01:55 1023 30.21 852 25.16 -4.7 23.5 60 -11.2 11.8
03:00 1023 30.21 852 25.16 -4.9 23.2 62 -11.2 11.9
03:05 1023 30.21 852 25.16 -4.9 23.2 61 -11.3 11.7
03:10 1023 30.21 852 25.16 -5 23 63 -11 12.2
03:15 1023 30.21 852 25.16 -5 23 62 -11.2 11.8
03:20 1023 30.21 852 25.16 -5.2 22.7 61 -11.5 11.3
03:25 1023 30.21 852 25.16 -5.1 22.9 61 -11.5 11.3
03:30 1023 30.21 852 25.16 -4.8 23.4 59 -11.6 11.1
03:35 1023 30.21 852 25.16 -4.6 23.8 58 -11.5 11.3
03:40 1023 30.21 852 25.16 -4.5 23.9 59 -11.3 11.6
03:45 1023 30.21 852 25.16 -4.3 24.2 59 -11.3 11.7
03:50 1023 30.21 852 25.16 -4.1 24.6 58 -11.2 11.8
03:55 1023 30.21 852 25.16 -4.2 24.4 59 -11 12.2
04:00 1023 30.21 852 25.16 -4.5 23.9 58 -11.5 11.4
04:05 1023 30.21 852 25.16 -4.2 24.4 57 -11.5 11.3
04:10 1023 30.21 852 25.16 -3.8 25.2 55 -11.5 11.3
04:15 1023 30.21 852 25.16 -3.4 25.9 54 -11.5 11.2
04:20 1023 30.21 852 25.16 -3.2 26.2 53 -11.5 11.2
04:25 1023 30.21 852 25.16 -3.3 26.1 52 -11.7 10.9
04:30 1023 30.21 852 25.16 -3.2 26.2 53 -11.6 11.1
04:35 1023 30.21 852 25.16 -3.5 25.7 51 -12.3 9.9
04:40 1023 30.21 852 25.16 -3.7 25.3 49 -13 8.6
04:45 1023 30.21 852 25.16 -3.8 25.2 49 -13.1 8.3
04:50 1023 30.21 852 25.16 -4.2 24.4 51 -12.9 8.8
04:55 1023 30.21 852 25.16 -4.5 23.8 51 -13.2 8.2
05:00 1023 30.21 852 25.16 -4.7 23.6 51 -13.4 7.9
05:05 1023 30.21 852 25.16 -4.7 23.6 52 -13.1 8.4
05:10 1023 30.21 852 25.16 -4.6 23.7 53 -12.8 8.9
05:15 1023 30.21 852 25.16 -4.6 23.6 53 -12.7 9.1
05:20 1023 30.21 852 25.16 -4.8 23.3 53 -13 8.7
05:25 1023 30.21 853 25.19 -4.9 23.1 51 -13.6 7.6
05:30 1023 30.21 853 25.19 -5.1 22.8 51 -13.9 7
05:35 1023 30.21 852 25.16 -5.6 21.9 53 -13.7 7.3
05:40 1023 30.21 853 25.19 -6 21.2 55 -13.7 7.3
05:45 1023 30.21 853 25.19 -6.2 20.8 53 -14.4 6.1
05:50 1023 30.21 853 25.19 -5.9 21.5 54 -13.7 7.4
05:55 1023 30.21 853 25.19 -6.1 21 53 -14.1 6.7
06:00 1023 30.21 853 25.19 -5.9 21.3 52 -14.3 6.2
06:05 1023 30.21 853 25.19 -5.7 21.8 53 -13.8 7.1
06:10 1023 30.21 853 25.19 -5.3 22.4 51 -13.9 6.9
06:15 1023 30.21 853 25.19 -4.9 23.2 52 -13.3 8.1
06:20 1023 30.21 853 25.19 -5 23.1 54 -12.9 8.9
06:25 1024 30.24 853 25.19 -4.7 23.5 53 -13 8.5
06:30 1024 30.24 853 25.19 -4.6 23.7 53 -12.9 8.8
06:35 1024 30.24 853 25.19 -4.7 23.5 54 -12.7 9.1
06:40 1023 30.21 853 25.19 -5.1 22.9 54 -13 8.6
06:45 1023 30.21 853 25.19 -5.3 22.4 54 -13.2 8.3
06:50 1023 30.21 853 25.19 -5.9 21.4 53 -14.1 6.6
06:55 1023 30.21 853 25.19 -5.9 21.4 52 -14.3 6.3
07:00 1023 30.21 853 25.19 -5.6 22 52 -14.1 6.7
07:05 1023 30.21 853 25.19 -5.2 22.7 50 -14.1 6.7
07:10 1023 30.21 853 25.19 -5.3 22.5 52 -13.7 7.3
07:15 1024 30.24 853 25.19 -5 23.1 51 -13.6 7.4
07:20 1024 30.24 853 25.19 -4.6 23.7 49 -13.7 7.4
07:25 1024 30.24 853 25.19 -4.6 23.7 51 -13.3 8
07:30 1024 30.24 853 25.19 -4.9 23.2 49 -14 6.8
07:35 1023 30.21 853 25.19 -4.9 23.1 50 -13.8 7.2
07:40 1024 30.24 853 25.19 -4.9 23.1 49 -14.1 6.6
07:45 1024 30.24 853 25.19 -4.9 23.3 48 -14.4 6.1
07:50 1024 30.24 853 25.19 -4.6 23.8 48 -14 6.8
07:55 1024 30.24 853 25.19 -4.6 23.7 48 -14.1 6.6
08:00 1024 30.24 853 25.19 -4.3 24.3 45 -14.5 5.8
08:05 1024 30.24 853 25.19 -3.9 25 45 -14.1 6.6
08:10 1024 30.24 853 25.19 -3 26.6 43 -13.8 7.1
08:15 1024 30.24 853 25.19 -2 28.3 41 -13.6 7.5
08:20 1024 30.24 853 25.19 -2 28.4 40 -14 6.8
08:25 1024 30.24 853 25.19 -2 28.4 41 -13.6 7.5
08:30 1024 30.24 853 25.19 -1.8 28.8 40 -13.8 7.1
08:35 1024 30.24 853 25.19 -1.6 29.2 39 -13.9 7
08:40 1024 30.24 853 25.19 -2.1 28.2 42 -13.4 7.9
08:45 1024 30.24 853 25.19 -2.2 28 41 -13.7 7.3
08:50 1024 30.24 853 25.19 -1.7 29 39 -13.8 7.2
08:55 1024 30.24 853 25.19 -1.6 29.1 39 -13.8 7.2
09:00 1024 30.24 853 25.19 -1.3 29.7 38 -13.7 7.3
09:05 1024 30.24 853 25.19 -0.8 30.5 37 -13.7 7.4
09:10 1024 30.24 853 25.19 -0.9 30.3 39 -13.3 8
09:15 1024 30.24 853 25.19 -1 30.3 38 -13.7 7.3
09:20 1024 30.24 853 25.19 -0.4 31.2 37 -13.4 7.9
09:25 1024 30.24 853 25.19 0.1 32.2 38 -12.5 9.5
09:30 1024 30.24 853 25.19 0.7 33.2 35 -13 8.7
09:35 1024 30.24 853 25.19 0.5 32.9 35 -13.1 8.3
09:40 1024 30.24 853 25.19 0.5 32.9 35 -13.3 8.1
09:45 1024 30.24 854 25.22 0.7 33.3 35 -13.2 8.2
09:50 1024 30.24 854 25.22 1 33.8 33 -13.6 7.5
09:55 1024 30.24 854 25.22 0.8 33.5 35 -13.1 8.5
10:00 1024 30.24 854 25.22 1 33.7 35 -13 8.6
10:05 1024 30.24 854 25.22 0.4 32.7 37 -12.7 9.1
10:10 1024 30.24 854 25.22 -0.1 31.8 39 -12.5 9.5
10:15 1025 30.27 854 25.22 -0.2 31.7 40 -12.2 10
10:20 1025 30.27 854 25.22 -0 31.9 39 -12.3 9.8
10:25 1025 30.27 854 25.22 -0.2 31.6 40 -12.3 9.9
10:30 1025 30.27 854 25.22 -0.5 31.2 40 -12.4 9.8
10:35 1025 30.27 854 25.22 -0.2 31.7 39 -12.4 9.7
10:40 1025 30.27 854 25.22 0.2 32.4 39 -12.2 10
10:45 1025 30.27 854 25.22 0.5 32.9 37 -12.5 9.5
10:50 1025 30.27 854 25.22 0.7 33.3 37 -12.3 9.9
10:55 1025 30.27 854 25.22 0.4 32.7 38 -12.4 9.7
11:00 1025 30.27 854 25.22 1.1 34 37 -12.1 10.3
11:05 1025 30.27 854 25.22 1.4 34.5 38 -11.5 11.2
11:10 1025 30.27 854 25.22 1.3 34.4 37 -11.7 10.9
11:15 1025 30.27 854 25.22 1.5 34.7 37 -11.7 10.9
11:20 1025 30.27 854 25.22 1.8 35.3 36 -11.8 10.8
11:25 1024 30.24 854 25.22 3.1 37.6 33 -11.5 11.2
11:30 1024 30.24 854 25.22 3.3 37.9 34 -11.3 11.7
11:35 1024 30.24 854 25.22 3.4 38.1 33 -11.3 11.6
11:40 1024 30.24 854 25.22 3.5 38.2 32 -11.9 10.6
11:45 1024 30.24 854 25.22 3 37.4 33 -11.7 10.9
11:50 1024 30.24 854 25.22 3.3 37.9 31 -12.4 9.6
11:55 1024 30.24 854 25.22 3.7 38.7 32 -11.5 11.3
12:00 1024 30.24 854 25.22 4.5 40.1 30 -11.7 11
12:05 1024 30.24 854 25.22 4.9 40.7 33 -10.3 13.5
12:10 1024 30.24 854 25.22 3.5 38.3 35 -10.7 12.8
12:15 1024 30.24 854 25.22 3.7 38.7 32 -11.6 11.1
12:20 1024 30.24 854 25.22 3.9 39.1 32 -11.2 11.8
12:25 1024 30.24 853 25.19 3.5 38.3 33 -11.4 11.5
12:30 1024 30.24 853 25.19 4 39.3 33 -11 12.3
12:35 1024 30.24 854 25.22 4.1 39.4 32 -11.2 11.9
12:40 1024 30.24 853 25.19 4.5 40.1 30 -11.8 10.8
12:45 1024 30.24 853 25.19 4.5 40 31 -11.4 11.6
12:50 1024 30.24 853 25.19 4.1 39.4 33 -10.8 12.6
12:55 1024 30.24 853 25.19 3.9 39 32 -11.2 11.8
13:00 1024 30.24 853 25.19 3.9 38.9 32 -11.6 11.2
13:05 1024 30.24 853 25.19 4.5 40.1 31 -11.1 12
13:10 1024 30.24 853 25.19 5.1 41.2 30 -11.2 11.8
13:15 1024 30.24 853 25.19 5.3 41.6 30 -11 12.2
13:20 1024 30.24 853 25.19 5 41 32 -10.5 13.2
14:25 1024 30.24 853 25.19 5.2 41.4 30 -11 12.2
14:30 1024 30.24 853 25.19 5 40.9 29 -11.5 11.3
14:35 1024 30.24 853 25.19 4.8 40.6 30 -11.5 11.2
14:40 1024 30.24 853 25.19 4.3 39.7 32 -11 12.2
14:45 1024 30.24 853 25.19 4.3 39.7 32 -11 12.2
14:50 1024 30.24 853 25.19 4.6 40.2 31 -11 12.3
14:55 1024 30.24 853 25.19 4.9 40.9 30 -11.4 11.4
15:00 1024 30.24 853 25.19 4.9 40.8 30 -11.2 11.8
15:05 1024 30.24 853 25.19 5.1 41.2 30 -11.3 11.7
15:10 1024 30.24 853 25.19 4.5 40.2 32 -10.9 12.4
15:15 1024 30.24 853 25.19 4 39.2 31 -11.6 11.2
15:20 1024 30.24 853 25.19 4.4 39.9 32 -11.1 12.1
15:25 1024 30.24 853 25.19 4.5 40.1 31 -11.3 11.6
15:30 1024 30.24 853 25.19 4.3 39.8 31 -11.5 11.3
15:35 1024 30.24 853 25.19 4.5 40.1 30 -11.5 11.3
15:40 1023 30.21 853 25.19 4.4 40 30 -11.5 11.2
15:45 1023 30.21 853 25.19 4.6 40.3 30 -11.5 11.4
15:50 1023 30.21 853 25.19 4.6 40.3 30 -11.4 11.5
15:55 1023 30.21 853 25.19 4.9 40.9 30 -11.4 11.4
16:00 1023 30.21 853 25.19 5.1 41.2 30 -11.2 11.9
16:05 1023 30.21 853 25.19 5 41 29 -11.4 11.4
16:10 1023 30.21 853 25.19 4.6 40.2 33 -10.4 13.2
16:15 1023 30.21 853 25.19 4.7 40.5 29 -11.8 10.8
16:20 1023 30.21 853 25.19 5 40.9 29 -11.6 11.2
16:25 1023 30.21 853 25.19 4.7 40.4 30 -11.4 11.5
16:30 1023 30.21 853 25.19 4.7 40.4 29 -11.7 10.9
16:35 1023 30.21 853 25.19 4.8 40.6 30 -11.4 11.5
16:40 1024 30.24 853 25.19 5.1 41.1 28 -11.9 10.6
16:45 1024 30.24 853 25.19 4.9 40.8 27 -12.5 9.5
16:50 1024 30.24 853 25.19 4.5 40.1 30 -11.7 10.9
16:55 1024 30.24 853 25.19 4.2 39.6 33 -10.8 12.5
17:00 1024 30.24 853 25.19 4.4 39.9 32 -11 12.2
17:05 1024 30.24 853 25.19 4.2 39.6 32 -11 12.1
17:10 1024 30.24 853 25.19 4.1 39.4 31 -11.4 11.5
17:15 1024 30.24 853 25.19 4 39.2 30 -12.2 10
17:20 1024 30.24 853 25.19 4.1 39.3 30 -12.1 10.3
17:25 1024 30.24 853 25.19 4.4 39.9 28 -12.7 9.1
17:30 1024 30.24 853 25.19 4.3 39.8 28 -12.6 9.3
17:35 1024 30.24 853 25.19 4.4 39.9 28 -12.8 9
17:40 1024 30.24 853 25.19 4.4 39.9 28 -12.4 9.7
17:45 1024 30.24 853 25.19 4.6 40.2 31 -11.2 11.8
17:50 1024 30.24 853 25.19 4.3 39.7 33 -10.8 12.6
17:55 1024 30.24 853 25.19 3.7 38.6 33 -11.2 11.9
18:00 1024 30.24 853 25.19 3.3 38 34 -11.2 11.8
18:05 1024 30.24 853 25.19 3.3 38 34 -10.9 12.3
18:10 1024 30.24 853 25.19 3.5 38.3 34 -11 12.1
18:15 1024 30.24 853 25.19 3.6 38.4 34 -10.9 12.3
18:20 1024 30.24 853 25.19 3.5 38.3 34 -10.8 12.5
18:25 1024 30.24 853 25.19 3.4 38.2 34 -11.1 12.1
18:30 1024 30.24 853 25.19 3.4 38.1 33 -11.4 11.5
18:35 1024 30.24 853 25.19 3.4 38.1 34 -10.9 12.4
18:40 1024 30.24 853 25.19 3.2 37.8 35 -11 12.2
18:45 1024 30.24 853 25.19 3.2 37.8 34 -11.1 12.1
18:50 1024 30.24 853 25.19 3.1 37.6 36 -10.4 13.2
18:55 1024 30.24 853 25.19 2.9 37.2 36 -10.8 12.6
19:00 1024 30.24 853 25.19 2.7 36.9 36 -10.9 12.3
19:05 1024 30.24 853 25.19 2.5 36.6 35 -11.6 11.1
19:10 1024 30.24 853 25.19 2.3 36.1 37 -11.1 12
19:15 1024 30.24 853 25.19 2.3 36.2 37 -11 12.1
19:20 1024 30.24 853 25.19 2.4 36.2 36 -11.1 12
19:25 1024 30.24 853 25.19 2.3 36.1 37 -11.1 12
19:30 1024 30.24 853 25.19 2.3 36.1 37 -10.9 12.4
19:35 1024 30.24 853 25.19 2.3 36.1 36 -11.3 11.7
19:40 1024 30.24 853 25.19 2.1 35.8 36 -11.4 11.5
19:45 1024 30.24 853 25.19 2.1 35.7 36 -11.5 11.4
19:50 1024 30.24 853 25.19 1.9 35.5 37 -11.4 11.4
19:55 1024 30.24 853 25.19 1.7 35.1 38 -11.1 11.9
20:00 1024 30.24 853 25.19 1.6 35 39 -11 12.2
20:05 1024 30.24 853 25.19 1.6 34.8 39 -11 12.2
20:10 1024 30.24 853 25.19 1.5 34.8 40 -10.8 12.6
20:15 1024 30.24 853 25.19 1.5 34.7 40 -10.6 12.9
20:20 1024 30.24 853 25.19 1.5 34.6 39 -10.9 12.3
20:25 1024 30.24 853 25.19 1.5 34.8 39 -10.8 12.5
20:30 1024 30.24 853 25.19 1.6 35 37 -11.4 11.5
20:35 1024 30.24 853 25.19 1.8 35.2 38 -11.3 11.7
20:40 1024 30.24 853 25.19 1.8 35.2 37 -11.4 11.4
20:45 1024 30.24 853 25.19 1.8 35.3 36 -11.6 11.1
20:50 1024 30.24 853 25.19 1.8 35.2 37 -11.5 11.2
20:55 1024 30.24 853 25.19 1.7 35 36 -11.8 10.8
21:00 1024 30.24 853 25.19 1.6 34.9 37 -11.4 11.4
21:05 1024 30.24 853 25.19 1.4 34.6 35 -12.5 9.4
21:10 1024 30.24 854 25.22 1.4 34.6 36 -12.1 10.2
21:15 1024 30.24 854 25.22 1.3 34.4 39 -11.3 11.7
21:20 1024 30.24 854 25.22 1.1 34 37 -11.9 10.6
21:25 1024 30.24 854 25.22 1.3 34.3 35 -12.4 9.6
21:30 1024 30.24 854 25.22 1.5 34.7 36 -12 10.4
21:35 1024 30.24 854 25.22 1.6 34.8 37 -11.5 11.3
21:40 1024 30.24 854 25.22 1.5 34.6 38 -11.2 11.8
21:45 1024 30.24 854 25.22 1.2 34.1 41 -10.7 12.7
21:50 1024 30.24 854 25.22 0.9 33.6 41 -10.8 12.6
21:55 1024 30.24 854 25.22 0.6 33.1 43 -10.6 12.9
22:00 1025 30.27 854 25.22 0.5 32.9 42 -11.1 12
22:05 1024 30.24 854 25.22 0.6 33 41 -11.2 11.8
22:10 1024 30.24 854 25.22 0.6 33.1 42 -11 12.1
22:15 1025 30.27 854 25.22 0.5 32.9 42 -10.9 12.4
22:20 1025 30.27 854 25.22 0.4 32.7 42 -11.2 11.8
22:25 1025 30.27 854 25.22 0.4 32.8 41 -11.3 11.7
22:30 1025 30.27 854 25.22 0.5 32.9 41 -11.4 11.5
22:35 1025 30.27 854 25.22 0.6 33 39 -11.8 10.8
22:40 1025 30.27 854 25.22 0.6 33.1 38 -12.2 10
22:45 1025 30.27 854 25.22 0.7 33.3 41 -11 12.2
22:50 1025 30.27 854 25.22 0.7 33.3 45 -10 14
22:55 1025 30.27 854 25.22 0.7 33.3 44 -10.2 13.7
23:00 1025 30.27 854 25.22 0.7 33.2 45 -10.1 13.9
23:05 1025 30.27 854 25.22 0.6 33.1 47 -9.5 14.8
23:10 1025 30.27 854 25.22 0.4 32.6 49 -9.2 15.5
23:15 1025 30.27 854 25.22 -0 32 51 -9 15.9
23:20 1025 30.27 854 25.22 -0.4 31.2 51 -9.3 15.2
23:25 1025 30.27 854 25.22 -0.8 30.6 52 -9.3 15.2
23:30 1025 30.27 854 25.22 -1 30.2 52 -9.7 14.6
23:35 1025 30.27 854 25.22 -1.1 30 50 -10.2 13.6
23:40 1025 30.27 854 25.22 -0.9 30.3 42 -12.2 10
23:45 1025 30.27 854 25.22 -0.3 31.4 47 -10.5 13.2
23:50 1025 30.27 854 25.22 -0.7 30.7 44 -11.4 11.4
23:55 1025 30.27 854 25.22 -0.7 30.8 45 -11.1 12.1
24:00 1025 30.27 854 25.22 -0.6 30.9 43 -11.8 10.7